Terminal Aerodrome Forecast
Issued by NWS Mt. Holly, NJ

Home | Current Version | Previous Version | Text Only | Print | Product List | Glossary On
Versions: 1 2 3 4 5 6 7 8 9 10 11 12 13 14 15 16 17 18 19 20 21 22 23 24 25 26 27 28 29 30
000
FTUS41 KPHI 141120
TAFPHL
TAF
KPHL 141120Z 1412/1518 VRB04KT P6SM OVC050
     FM141400 28008KT P6SM SCT050
     FM141500 31010G21KT P6SM SCT050
     FM142200 32010KT P6SM SCT200
     FM150400 34005KT P6SM BKN200
     FM151000 VRB04KT P6SM BKN150=

USA.gov is the U.S. government's official web portal to all federal, state and local government web resources and services.